Cote D IVoirian Star — A8SL4 — position and weather

sailwx.info

Track history (hours):
 
Tides and Currents Weather Stations Pressure Air Temp Water Temp Dewpoint Dewpoint Depression Visibility Wind Speed Wind Dir Waves Ship Positions

Cote D IVoirian Star

Last reported at 2015-May-24 06:34 UTC. Time now 2015-May-24 07:10 UTC.
Position N 51°25' E 003°26'.

Length 185 m; draft 7.8 m.

Type: Cargo ship. MMSI: 636014241.

Date/timePositionNaut miles runAvg speedWind from/ knotsBaromVisibWave heightAir tempDewpointWater temp
2015-May-24 06:34N 51°25' E 003°26'1616.1
2015-May-24 05:34N 51°24' E 003°00'1312.7
2015-May-24 04:33N 51°22' E 002°40'1515.1
2015-May-24 03:33N 51°17' E 002°17'1919.4
2015-May-24 02:33N 51°08' E 001°50'1817.6
2015-May-24 01:33N 50°56' E 001°30'1918.7
2015-May-24 00:33N 50°40' E 001°15'2019.4
2015-May-23 23:31N 50°28' E 000°50'3819.4
2015-May-23 21:33N 50°23' W 000°10'1918.9
2015-May-23 20:33N 50°30' W 000°37'1616.0
2015-May-23 19:33N 50°39' W 000°59'1111.1
2015-May-23 18:33N 50°48' W 001°07'1 0.9
2015-May-23 17:33N 50°49' W 001°05'0 0.0
2015-May-23 16:33N 50°49' W 001°05'0 0.0
2015-May-23 15:33N 50°49' W 001°05'0 0.0
2015-May-23 14:33N 50°49' W 001°05'0 0.0
2015-May-23 13:33N 50°49' W 001°05'0 0.0
2015-May-23 12:33N 50°49' W 001°05'0 0.0
2015-May-23 11:33N 50°49' W 001°05'0 0.0
2015-May-23 10:33N 50°49' W 001°05'0 0.0
2015-May-23 09:33N 50°49' W 001°05'0 0.0
2015-May-23 08:33N 50°49' W 001°05'0 0.0
2015-May-23 07:33N 50°49' W 001°05'0 0.0
2015-May-23 06:33N 50°49' W 001°05'0 0.0
2015-May-23 05:33N 50°49' W 001°05'0 0.0
2015-May-23 04:33N 50°49' W 001°06'5 5.3
2015-May-23 03:33N 50°44' W 001°02'8 7.8
2015-May-23 02:34N 50°36' W 000°60'9 9.4
2015-May-23 01:33N 50°28' W 001°07'1211.7
2015-May-23 00:33N 50°20' W 001°21'  
2015-May-20 19:04N 37°36' W 014°25'917.7
2015-May-20 18:33N 37°28' W 014°30'78917.0
2015-May-18 20:05N 24°31' W 017°08'10518.7
2015-May-18 14:27N 22°49' W 017°36'26318.9
2015-May-18 00:32N 18°26' W 017°49'6119.5
2015-May-17 21:23N 17°25' W 017°46'1619.2
2015-May-17 20:34N 17°09' W 017°45'  
Track history (hours):
 
Tides and Currents Weather Stations Pressure Air Temp Water Temp Dewpoint Dewpoint Depression Visibility Wind Speed Wind Dir Waves Ship Positions

Cote D IVoirian Star

Last reported at 2015-May-24 06:34 UTC. Time now 2015-May-24 07:10 UTC.
Position N 51°25' E 003°26'.

Length 185 m; draft 7.8 m.

Type: Cargo ship. MMSI: 636014241.

Date/timePositionNaut miles runAvg speedWind from/ knotsBaromVisibWave heightAir tempDewpointWater temp
2015-May-24 06:34N 51°25' E 003°26'1616.1
2015-May-24 05:34N 51°24' E 003°00'1312.7
2015-May-24 04:33N 51°22' E 002°40'1515.1
2015-May-24 03:33N 51°17' E 002°17'1919.4
2015-May-24 02:33N 51°08' E 001°50'1817.6
2015-May-24 01:33N 50°56' E 001°30'1918.7
2015-May-24 00:33N 50°40' E 001°15'2019.4
2015-May-23 23:31N 50°28' E 000°50'3819.4
2015-May-23 21:33N 50°23' W 000°10'1918.9
2015-May-23 20:33N 50°30' W 000°37'1616.0
2015-May-23 19:33N 50°39' W 000°59'1111.1
2015-May-23 18:33N 50°48' W 001°07'1 0.9
2015-May-23 17:33N 50°49' W 001°05'0 0.0
2015-May-23 16:33N 50°49' W 001°05'0 0.0
2015-May-23 15:33N 50°49' W 001°05'0 0.0
2015-May-23 14:33N 50°49' W 001°05'0 0.0
2015-May-23 13:33N 50°49' W 001°05'0 0.0
2015-May-23 12:33N 50°49' W 001°05'0 0.0
2015-May-23 11:33N 50°49' W 001°05'0 0.0
2015-May-23 10:33N 50°49' W 001°05'0 0.0
2015-May-23 09:33N 50°49' W 001°05'0 0.0
2015-May-23 08:33N 50°49' W 001°05'0 0.0
2015-May-23 07:33N 50°49' W 001°05'0 0.0
2015-May-23 06:33N 50°49' W 001°05'0 0.0
2015-May-23 05:33N 50°49' W 001°05'0 0.0
2015-May-23 04:33N 50°49' W 001°06'5 5.3
2015-May-23 03:33N 50°44' W 001°02'8 7.8
2015-May-23 02:34N 50°36' W 000°60'9 9.4
2015-May-23 01:33N 50°28' W 001°07'1211.7
2015-May-23 00:33N 50°20' W 001°21'  
2015-May-20 19:04N 37°36' W 014°25'917.7
2015-May-20 18:33N 37°28' W 014°30'78917.0
2015-May-18 20:05N 24°31' W 017°08'10518.7
2015-May-18 14:27N 22°49' W 017°36'26318.9
2015-May-18 00:32N 18°26' W 017°49'6119.5
2015-May-17 21:23N 17°25' W 017°46'1619.2
2015-May-17 20:34N 17°09' W 017°45'  

Dump ship's entire track history